createdAt,value
2024-04-07T00:02:10.430Z,12.31
2024-04-07T00:04:44.457Z,12.30
2024-04-07T00:07:23.465Z,12.28
2024-04-07T00:09:58.360Z,12.27
2024-04-07T00:12:39.509Z,12.23
2024-04-07T00:15:14.652Z,12.19
2024-04-07T00:17:59.126Z,12.17
2024-04-07T00:20:33.100Z,12.19
2024-04-07T00:23:12.186Z,12.19
2024-04-07T00:25:46.226Z,12.17
2024-04-07T00:28:25.118Z,12.14
2024-04-07T00:30:59.234Z,12.08
2024-04-07T00:33:42.880Z,12.07
2024-04-07T00:36:17.033Z,12.08
2024-04-07T00:38:55.806Z,12.09
2024-04-07T00:41:31.211Z,12.08
2024-04-07T00:44:10.086Z,12.03
2024-04-07T00:46:44.791Z,12.01
2024-04-07T00:49:28.601Z,12.01
2024-04-07T00:52:03.068Z,11.98
2024-04-07T00:54:43.536Z,11.94
2024-04-07T00:57:18.041Z,11.91
2024-04-07T00:59:57.150Z,11.89
2024-04-07T01:02:32.602Z,11.82
2024-04-07T01:05:16.441Z,11.76
2024-04-07T01:07:51.183Z,11.72
2024-04-07T01:10:29.995Z,11.72
2024-04-07T01:13:04.884Z,11.69
2024-04-07T01:15:44.880Z,11.67
2024-04-07T01:18:18.841Z,11.64
2024-04-07T01:21:02.515Z,11.55
2024-04-07T01:23:41.646Z,11.49
2024-04-07T01:26:20.498Z,11.44
2024-04-07T01:28:54.540Z,11.39
2024-04-07T01:31:33.680Z,11.36
2024-04-07T01:34:07.687Z,11.41
2024-04-07T01:36:47.136Z,11.43
2024-04-07T01:39:26.030Z,11.32
2024-04-07T01:42:05.184Z,11.28
2024-04-07T01:44:39.190Z,11.18
2024-04-07T01:47:18.105Z,11.20
2024-04-07T01:49:53.109Z,11.20
2024-04-07T01:52:32.320Z,11.18
2024-04-07T01:55:11.368Z,11.15
2024-04-07T01:57:50.202Z,11.13
2024-04-07T02:00:24.468Z,11.16
2024-04-07T02:03:03.406Z,11.19
2024-04-07T02:05:37.611Z,11.11
2024-04-07T02:08:17.208Z,11.09
2024-04-07T02:10:56.448Z,11.05
2024-04-07T02:13:35.242Z,11.01
2024-04-07T02:16:09.460Z,11.00
2024-04-07T02:18:49.118Z,10.97
2024-04-07T02:21:23.196Z,10.95
2024-04-07T02:24:02.016Z,10.94
2024-04-07T02:26:40.853Z,10.91
2024-04-07T02:29:19.669Z,10.86
2024-04-07T02:31:53.664Z,10.82
2024-04-07T02:34:32.519Z,10.81
2024-04-07T02:37:06.969Z,10.73
2024-04-07T02:39:45.882Z,10.65
2024-04-07T02:42:24.712Z,10.60
2024-04-07T02:45:14.440Z,10.55
2024-04-07T02:48:04.181Z,10.49
2024-04-07T02:50:43.743Z,10.49
2024-04-07T02:53:17.715Z,10.48
2024-04-07T02:55:56.580Z,10.46
2024-04-07T02:58:35.444Z,10.45
2024-04-07T03:01:14.979Z,10.48
2024-04-07T03:03:48.964Z,10.47
2024-04-07T03:06:27.903Z,10.48
2024-04-07T03:09:01.999Z,10.51
2024-04-07T03:11:40.895Z,10.52
2024-04-07T03:14:19.744Z,10.52
2024-04-07T03:17:01.456Z,10.56
2024-04-07T03:19:35.557Z,10.53
2024-04-07T03:22:14.405Z,10.50
2024-04-07T03:24:48.364Z,10.46
2024-04-07T03:27:27.185Z,10.49
2024-04-07T03:30:07.001Z,10.53
2024-04-07T03:32:45.797Z,10.53
2024-04-07T03:35:19.895Z,10.53
2024-04-07T03:37:58.761Z,10.51
2024-04-07T03:40:37.647Z,10.55
2024-04-07T03:43:18.398Z,10.59
2024-04-07T03:46:06.903Z,10.57
2024-04-07T03:48:45.683Z,10.49
2024-04-07T03:51:24.527Z,10.45
2024-04-07T03:53:58.525Z,10.45
2024-04-07T03:56:37.401Z,10.41
2024-04-07T03:59:11.396Z,10.41
2024-04-07T04:01:55.045Z,10.40
2024-04-07T04:04:29.086Z,10.38
2024-04-07T04:07:07.886Z,10.33
2024-04-07T04:09:41.892Z,10.25
2024-04-07T04:12:20.698Z,10.24
2024-04-07T04:14:55.954Z,10.21
2024-04-07T04:17:39.612Z,10.21
2024-04-07T04:20:13.632Z,10.23
2024-04-07T04:22:52.523Z,10.18
2024-04-07T04:25:27.639Z,10.12
2024-04-07T04:28:06.580Z,10.09
2024-04-07T04:30:40.688Z,10.07
2024-04-07T04:33:24.342Z,10.08
2024-04-07T04:35:58.441Z,9.98
2024-04-07T04:38:37.228Z,9.93
2024-04-07T04:41:11.435Z,9.93
2024-04-07T04:43:50.323Z,9.95
2024-04-07T04:46:24.374Z,9.96
2024-04-07T04:49:08.081Z,9.98
2024-04-07T04:51:42.227Z,9.99
2024-04-07T04:54:21.091Z,9.96
2024-04-07T04:56:55.134Z,9.98
2024-04-07T04:59:33.957Z,10.04
2024-04-07T05:02:07.958Z,10.09
2024-04-07T05:04:52.262Z,10.12
2024-04-07T05:07:26.273Z,10.17
2024-04-07T05:10:05.573Z,10.15
2024-04-07T05:12:39.859Z,10.13
2024-04-07T05:15:18.850Z,10.07
2024-04-07T05:17:57.681Z,9.99
2024-04-07T05:20:38.478Z,9.96
2024-04-07T05:23:17.484Z,9.96
2024-04-07T05:25:51.574Z,9.98
2024-04-07T05:28:31.571Z,9.98
2024-04-07T05:31:07.107Z,9.97
2024-04-07T05:33:46.174Z,9.98
2024-04-07T05:36:24.989Z,10.00
2024-04-07T05:39:03.847Z,10.01
2024-04-07T05:41:37.819Z,10.03
2024-04-07T05:44:16.687Z,10.08
2024-04-07T05:46:50.671Z,10.09
2024-04-07T05:49:29.628Z,10.06
2024-04-07T05:52:09.732Z,10.07
2024-04-07T05:54:48.582Z,10.12
2024-04-07T05:57:22.558Z,10.18
2024-04-07T06:00:01.450Z,10.24
2024-04-07T06:02:35.440Z,10.27
2024-04-07T06:05:14.430Z,10.29
2024-04-07T06:07:53.318Z,10.34
2024-04-07T06:10:32.142Z,10.42
2024-04-07T06:13:07.081Z,10.48
2024-04-07T06:15:45.932Z,10.52
2024-04-07T06:18:19.904Z,10.55
2024-04-07T06:20:59.852Z,10.61
2024-04-07T06:23:38.720Z,10.68
2024-04-07T06:26:17.522Z,10.76
2024-04-07T06:28:51.581Z,10.84
2024-04-07T06:31:30.506Z,10.92
2024-04-07T06:34:10.107Z,10.98
2024-04-07T06:36:44.101Z,11.05
2024-04-07T06:39:28.083Z,11.14
2024-04-07T06:42:02.063Z,11.20
2024-04-07T06:44:40.891Z,11.26
2024-04-07T06:47:14.969Z,11.34
2024-04-07T06:49:56.489Z,11.42
2024-04-07T06:52:30.495Z,11.51
2024-04-07T06:55:14.376Z,11.57
2024-04-07T06:57:49.034Z,11.64
2024-04-07T07:00:28.752Z,11.70
2024-04-07T07:03:02.946Z,11.84
2024-04-07T07:05:41.873Z,11.99
2024-04-07T07:08:16.012Z,12.15
2024-04-07T07:11:08.032Z,12.31
2024-04-07T07:13:44.783Z,12.45
2024-04-07T07:16:23.668Z,12.60
2024-04-07T07:18:57.723Z,12.70
2024-04-07T07:21:36.560Z,12.82
2024-04-07T07:24:10.658Z,12.95
2024-04-07T07:26:54.328Z,13.09
2024-04-07T07:29:28.296Z,13.16
2024-04-07T07:32:08.639Z,13.22
2024-04-07T07:34:42.596Z,13.31
2024-04-07T07:37:21.393Z,13.50
2024-04-07T07:39:55.381Z,13.66
2024-04-07T07:42:40.054Z,13.84
2024-04-07T07:45:14.170Z,13.97
2024-04-07T07:47:52.997Z,14.12
2024-04-07T07:50:27.059Z,14.35
2024-04-07T07:53:05.927Z,14.56
2024-04-07T07:55:40.433Z,14.76
2024-04-07T07:58:24.138Z,14.95
2024-04-07T08:00:58.114Z,15.20
2024-04-07T08:03:37.303Z,15.48
2024-04-07T08:06:11.372Z,15.97
2024-04-07T08:08:50.217Z,16.56
2024-04-07T08:11:24.184Z,16.88
2024-04-07T08:14:07.885Z,17.12
2024-04-07T08:16:46.743Z,17.36
2024-04-07T08:19:25.570Z,17.79
2024-04-07T08:22:04.597Z,18.01
2024-04-07T08:24:43.438Z,18.14
2024-04-07T08:27:24.016Z,18.28
2024-04-07T08:30:07.741Z,18.50
2024-04-07T08:32:41.747Z,18.55
2024-04-07T08:35:20.612Z,18.60
2024-04-07T08:37:55.906Z,18.71
2024-04-07T08:40:34.869Z,18.78
2024-04-07T08:43:10.964Z,18.77
2024-04-07T08:45:57.131Z,18.75
2024-04-07T08:48:32.324Z,18.79
2024-04-07T08:51:12.829Z,18.89
2024-04-07T08:53:48.142Z,19.03
2024-04-07T08:56:27.387Z,19.14
2024-04-07T08:59:03.794Z,19.33
2024-04-07T09:01:53.345Z,19.39
2024-04-07T09:04:34.568Z,19.46
2024-04-07T09:07:08.607Z,19.58
2024-04-07T09:09:48.036Z,19.69
2024-04-07T09:12:22.070Z,19.81
2024-04-07T09:15:00.930Z,19.90
2024-04-07T09:17:39.835Z,19.99
2024-04-07T09:20:25.472Z,20.05
2024-04-07T09:22:59.620Z,20.11
2024-04-07T09:25:39.176Z,20.23
2024-04-07T09:28:13.698Z,20.53
2024-04-07T09:30:53.430Z,20.61
2024-04-07T09:33:33.601Z,20.71
2024-04-07T09:36:13.580Z,20.76
2024-04-07T09:38:47.539Z,20.92
2024-04-07T09:41:29.766Z,20.95
2024-04-07T09:44:08.089Z,21.02
2024-04-07T09:46:48.206Z,21.16
2024-04-07T09:49:31.772Z,21.12
2024-04-07T09:52:12.414Z,21.23
2024-04-07T09:54:49.505Z,21.46
2024-04-07T09:57:28.345Z,21.69
2024-04-07T10:00:02.942Z,21.81
2024-04-07T10:02:43.258Z,21.99
2024-04-07T10:05:22.429Z,22.18
2024-04-07T10:08:02.738Z,22.17
2024-04-07T10:10:39.541Z,22.19
2024-04-07T10:13:20.766Z,22.20
2024-04-07T10:15:56.630Z,22.34
2024-04-07T10:18:38.466Z,22.49
2024-04-07T10:21:19.263Z,22.58
2024-04-07T10:24:00.221Z,22.61
2024-04-07T10:26:34.371Z,22.73
2024-04-07T10:29:15.342Z,22.92
2024-04-07T10:31:49.800Z,23.06
2024-04-07T10:34:28.682Z,23.32
2024-04-07T10:37:07.520Z,23.67
2024-04-07T10:39:57.429Z,24.05
2024-04-07T10:42:31.509Z,24.34
2024-04-07T10:45:11.318Z,24.84
2024-04-07T10:47:45.364Z,25.11
2024-04-07T10:50:25.454Z,25.07
2024-04-07T10:53:09.127Z,25.07
2024-04-07T10:55:47.978Z,25.07
2024-04-07T10:58:21.973Z,25.42
2024-04-07T11:01:01.131Z,25.58
2024-04-07T11:03:38.489Z,25.65
2024-04-07T11:06:18.170Z,25.98
2024-04-07T11:08:57.525Z,25.93
2024-04-07T11:11:37.124Z,25.69
2024-04-07T11:14:11.815Z,25.41
2024-04-07T11:16:50.697Z,25.31
2024-04-07T11:19:25.721Z,25.30
2024-04-07T11:22:04.727Z,25.30
2024-04-07T11:24:43.807Z,25.30
2024-04-07T11:27:22.676Z,25.39
2024-04-07T11:29:57.571Z,25.60
2024-04-07T11:32:36.524Z,25.63
2024-04-07T11:35:10.768Z,25.75
2024-04-07T11:37:49.658Z,25.73
2024-04-07T11:40:28.504Z,25.65
2024-04-07T11:43:07.397Z,25.57
2024-04-07T11:45:41.683Z,25.88
2024-04-07T11:48:20.564Z,26.40
2024-04-07T11:50:54.578Z,26.51
2024-04-07T11:53:35.361Z,27.11
2024-04-07T11:56:14.318Z,28.90
2024-04-07T11:58:53.215Z,30.10
2024-04-07T12:01:27.252Z,30.32
2024-04-07T12:04:06.121Z,30.20
2024-04-07T12:06:40.185Z,30.14
2024-04-07T12:09:19.120Z,30.05
2024-04-07T12:11:57.941Z,29.70
2024-04-07T12:14:36.762Z,29.49
2024-04-07T12:17:12.647Z,29.50
2024-04-07T12:19:52.585Z,29.50
2024-04-07T12:22:37.270Z,29.41
2024-04-07T12:25:16.080Z,29.16
2024-04-07T12:27:55.076Z,28.79
2024-04-07T12:30:33.875Z,28.42
2024-04-07T12:33:13.003Z,27.81
2024-04-07T12:35:47.087Z,26.95
2024-04-07T12:38:25.909Z,26.86
2024-04-07T12:40:59.882Z,26.77
2024-04-07T12:43:45.424Z,26.78
2024-04-07T12:46:20.807Z,27.27
2024-04-07T12:49:01.275Z,27.80
2024-04-07T12:51:37.653Z,28.42
2024-04-07T12:54:16.461Z,28.48
2024-04-07T12:56:50.754Z,28.40
2024-04-07T12:59:35.162Z,28.38
2024-04-07T13:02:09.839Z,28.49
2024-04-07T13:04:49.485Z,28.82
2024-04-07T13:07:23.474Z,28.84
2024-04-07T13:10:02.264Z,28.21
2024-04-07T13:12:36.452Z,27.61
2024-04-07T13:15:20.622Z,27.29
2024-04-07T13:17:54.746Z,27.13
2024-04-07T13:20:33.872Z,27.00
2024-04-07T13:23:07.882Z,26.96
2024-04-07T13:25:46.904Z,26.88
2024-04-07T13:28:21.438Z,26.88
2024-04-07T13:31:05.134Z,26.88
2024-04-07T13:33:39.164Z,26.89
2024-04-07T13:36:17.996Z,26.89
2024-04-07T13:38:51.945Z,27.03
2024-04-07T13:41:32.153Z,27.28
2024-04-07T13:44:06.173Z,27.65
2024-04-07T13:46:52.215Z,28.56
2024-04-07T13:49:26.569Z,30.08
2024-04-07T13:52:06.746Z,30.18
2024-04-07T13:54:40.799Z,30.38
2024-04-07T13:57:19.946Z,30.47
2024-04-07T13:59:53.882Z,30.40
2024-04-07T14:02:37.642Z,30.37
2024-04-07T14:05:11.664Z,30.01
2024-04-07T14:07:50.607Z,29.46
2024-04-07T14:10:24.674Z,28.72
2024-04-07T14:13:04.094Z,28.36
2024-04-07T14:15:38.103Z,27.60
2024-04-07T14:18:21.850Z,26.87
2024-04-07T14:20:55.834Z,26.87
2024-04-07T14:23:34.703Z,27.13
2024-04-07T14:26:08.734Z,27.79
2024-04-07T14:28:47.546Z,28.00
2024-04-07T14:31:21.633Z,28.13
2024-04-07T14:34:05.379Z,28.22
2024-04-07T14:36:39.404Z,28.33
2024-04-07T14:39:18.205Z,28.32
2024-04-07T14:41:53.170Z,28.56
2024-04-07T14:44:34.592Z,28.29
2024-04-07T14:47:08.662Z,27.62
2024-04-07T14:49:53.310Z,27.17
2024-04-07T14:52:27.323Z,26.58
2024-04-07T14:55:06.138Z,26.45
2024-04-07T14:57:40.119Z,26.17
2024-04-07T15:00:20.438Z,25.98
2024-04-07T15:02:54.733Z,25.88
2024-04-07T15:05:38.406Z,25.83
2024-04-07T15:08:14.348Z,25.86
2024-04-07T15:11:05.909Z,25.84
2024-04-07T15:13:39.959Z,25.85
2024-04-07T15:16:18.874Z,25.99
2024-04-07T15:18:58.287Z,26.17
2024-04-07T15:21:37.514Z,26.62
2024-04-07T15:24:16.977Z,28.18
2024-04-07T15:26:50.969Z,30.18
2024-04-07T15:29:30.012Z,30.07
2024-04-07T15:32:03.985Z,29.94
2024-04-07T15:34:42.856Z,29.70
2024-04-07T15:37:21.992Z,29.32
2024-04-07T15:40:00.892Z,28.91
2024-04-07T15:42:34.908Z,28.47
2024-04-07T15:45:14.293Z,28.26
2024-04-07T15:47:48.291Z,28.07
2024-04-07T15:50:27.143Z,27.80
2024-04-07T15:53:11.016Z,27.49
2024-04-07T15:55:45.148Z,27.29
2024-04-07T15:58:24.159Z,27.09
2024-04-07T16:00:58.233Z,26.91
2024-04-07T16:03:37.038Z,26.75
2024-04-07T16:06:11.154Z,26.59
2024-04-07T16:08:55.702Z,26.48
2024-04-07T16:11:30.038Z,26.37
2024-04-07T16:14:09.262Z,26.09
2024-04-07T16:16:43.258Z,25.77
2024-04-07T16:19:22.075Z,25.54
2024-04-07T16:21:56.039Z,25.26
2024-04-07T16:24:39.742Z,25.10
2024-04-07T16:27:13.730Z,24.99
2024-04-07T16:29:52.706Z,24.86
2024-04-07T16:32:26.721Z,24.74
2024-04-07T16:35:05.686Z,24.65
2024-04-07T16:37:39.818Z,24.52
2024-04-07T16:40:23.805Z,24.43
2024-04-07T16:42:57.879Z,24.36
2024-04-07T16:45:36.697Z,24.29
2024-04-07T16:48:13.259Z,24.05
2024-04-07T16:51:02.260Z,23.82
2024-04-07T16:53:36.243Z,23.70
2024-04-07T16:56:20.286Z,23.55
2024-04-07T16:58:54.244Z,23.31
2024-04-07T17:01:33.258Z,23.18
2024-04-07T17:04:07.364Z,23.06
2024-04-07T17:06:47.430Z,22.90
2024-04-07T17:09:21.441Z,22.75
2024-04-07T17:12:05.159Z,22.65
2024-04-07T17:14:39.160Z,22.54
2024-04-07T17:17:19.872Z,22.45
2024-04-07T17:19:54.365Z,22.34
2024-04-07T17:22:37.035Z,22.29
2024-04-07T17:25:11.099Z,22.24
2024-04-07T17:27:54.809Z,22.16
2024-04-07T17:30:28.819Z,22.08
2024-04-07T17:33:07.776Z,21.99
2024-04-07T17:35:44.044Z,21.85
2024-04-07T17:38:22.919Z,21.77
2024-04-07T17:40:57.592Z,21.65
2024-04-07T17:43:41.303Z,21.54
2024-04-07T17:46:16.491Z,21.45
2024-04-07T17:48:55.319Z,21.37
2024-04-07T17:51:30.349Z,21.30
2024-04-07T17:54:09.281Z,21.16
2024-04-07T17:56:43.314Z,21.04
2024-04-07T17:59:29.473Z,20.93
2024-04-07T18:02:03.516Z,20.84
2024-04-07T18:04:42.381Z,20.77
2024-04-07T18:07:16.702Z,20.69
2024-04-07T18:09:56.041Z,20.60
2024-04-07T18:12:30.155Z,20.52
2024-04-07T18:15:13.987Z,20.46
2024-04-07T18:17:49.728Z,20.47
2024-04-07T18:20:28.537Z,20.45
2024-04-07T18:23:02.656Z,20.39
2024-04-07T18:25:41.539Z,20.32
2024-04-07T18:28:15.563Z,20.02
2024-04-07T18:30:59.350Z,19.89
2024-04-07T18:33:37.767Z,19.74
2024-04-07T18:36:16.785Z,19.70
2024-04-07T18:38:50.749Z,19.65
2024-04-07T18:41:29.680Z,19.60
2024-04-07T18:44:03.719Z,19.51
2024-04-07T18:46:47.533Z,19.46
2024-04-07T18:49:21.501Z,19.42
2024-04-07T18:52:00.402Z,19.39
2024-04-07T18:54:34.409Z,19.35
2024-04-07T18:57:13.269Z,19.33
2024-04-07T18:59:47.236Z,19.30
2024-04-07T19:02:31.008Z,19.29
2024-04-07T19:05:06.997Z,19.26
2024-04-07T19:07:46.481Z,19.23
2024-04-07T19:10:20.571Z,19.19
2024-04-07T19:12:59.499Z,19.14
2024-04-07T19:15:33.480Z,19.09
2024-04-07T19:18:17.375Z,18.98
2024-04-07T19:21:00.958Z,18.92
2024-04-07T19:23:40.582Z,18.83
2024-04-07T19:26:14.776Z,18.73
2024-04-07T19:28:54.264Z,18.68
2024-04-07T19:31:28.390Z,18.67
2024-04-07T19:34:12.053Z,18.68
2024-04-07T19:36:46.703Z,18.66
2024-04-07T19:39:25.649Z,18.66
2024-04-07T19:42:00.504Z,18.64
2024-04-07T19:44:39.527Z,18.59
2024-04-07T19:47:13.822Z,18.60
2024-04-07T19:49:57.540Z,18.57
2024-04-07T19:52:31.498Z,18.54
2024-04-07T19:55:10.793Z,18.50
2024-04-07T19:57:47.291Z,18.48
2024-04-07T20:00:28.228Z,18.45
2024-04-07T20:03:02.330Z,18.44
2024-04-07T20:05:52.391Z,18.42
2024-04-07T20:08:27.192Z,18.40
2024-04-07T20:11:08.580Z,18.37
2024-04-07T20:13:42.735Z,18.40
2024-04-07T20:16:21.633Z,18.41
2024-04-07T20:18:55.601Z,18.39
2024-04-07T20:21:39.303Z,18.35
2024-04-07T20:24:18.125Z,18.35
2024-04-07T20:26:52.140Z,18.31
2024-04-07T20:29:31.035Z,18.26
2024-04-07T20:32:05.617Z,18.21
2024-04-07T20:34:44.870Z,18.14
2024-04-07T20:37:23.703Z,18.09
2024-04-07T20:40:02.578Z,18.03
2024-04-07T20:42:41.429Z,17.98
2024-04-07T20:45:15.507Z,17.96
2024-04-07T20:47:54.291Z,17.93
2024-04-07T20:50:31.271Z,17.92
2024-04-07T20:53:14.998Z,17.90
2024-04-07T20:55:48.997Z,17.90
2024-04-07T20:58:27.829Z,17.87
2024-04-07T21:01:01.880Z,17.84
2024-04-07T21:03:40.725Z,17.79
2024-04-07T21:06:14.771Z,17.78
2024-04-07T21:08:59.387Z,17.80
2024-04-07T21:11:33.644Z,17.73
2024-04-07T21:14:12.474Z,17.57
2024-04-07T21:16:46.505Z,17.47
2024-04-07T21:19:25.371Z,17.43
2024-04-07T21:21:59.424Z,17.44
2024-04-07T21:24:43.184Z,17.46
2024-04-07T21:27:17.934Z,17.52
2024-04-07T21:29:56.965Z,17.50
2024-04-07T21:32:31.003Z,17.45
2024-04-07T21:35:11.149Z,17.40
2024-04-07T21:37:45.127Z,17.37
2024-04-07T21:40:28.885Z,17.32
2024-04-07T21:43:02.869Z,17.31
2024-04-07T21:45:41.949Z,17.30
2024-04-07T21:48:15.990Z,17.23
2024-04-07T21:50:54.970Z,17.20
2024-04-07T21:53:29.678Z,17.16
2024-04-07T21:56:14.337Z,17.15
2024-04-07T21:58:48.391Z,17.12
2024-04-07T22:01:27.190Z,17.07
2024-04-07T22:04:06.026Z,17.01
2024-04-07T22:06:40.073Z,16.92
2024-04-07T22:09:19.101Z,16.87
2024-04-07T22:11:57.934Z,16.83
2024-04-07T22:14:36.832Z,16.79
2024-04-07T22:17:10.841Z,16.76
2024-04-07T22:19:49.642Z,16.73
2024-04-07T22:22:23.684Z,16.72
2024-04-07T22:25:02.510Z,16.68
2024-04-07T22:27:41.555Z,16.62
2024-04-07T22:30:21.458Z,16.58
2024-04-07T22:32:56.758Z,16.53
2024-04-07T22:35:35.670Z,16.50
2024-04-07T22:38:14.610Z,16.47
2024-04-07T22:40:48.640Z,16.45
2024-04-07T22:43:32.353Z,16.42
2024-04-07T22:46:06.872Z,16.39
2024-04-07T22:48:45.710Z,16.35
2024-04-07T22:51:19.702Z,16.34
2024-04-07T22:54:00.152Z,16.33
2024-04-07T22:56:34.256Z,16.38
2024-04-07T22:59:17.925Z,16.37
2024-04-07T23:01:51.959Z,16.30
2024-04-07T23:04:30.815Z,16.32
2024-04-07T23:07:04.823Z,16.28
2024-04-07T23:09:43.686Z,16.19
2024-04-07T23:12:17.803Z,16.19
2024-04-07T23:15:01.981Z,16.17
2024-04-07T23:17:36.049Z,16.15
2024-04-07T23:20:16.065Z,16.12
2024-04-07T23:22:50.216Z,16.14
2024-04-07T23:25:29.270Z,16.12
2024-04-07T23:28:05.322Z,16.09
2024-04-07T23:30:49.034Z,16.07
2024-04-07T23:33:23.066Z,16.11
2024-04-07T23:36:02.803Z,16.12
2024-04-07T23:38:42.337Z,16.08
2024-04-07T23:41:16.373Z,16.03
2024-04-07T23:43:55.379Z,15.95
2024-04-07T23:46:34.232Z,15.90
2024-04-07T23:49:13.045Z,15.87
2024-04-07T23:51:47.245Z,15.85
2024-04-07T23:54:26.056Z,15.79
2024-04-07T23:57:00.222Z,15.73
2024-04-07T23:59:39.112Z,15.67
